Time;durP1;ratioP1;P1;durP2;ratioP2;P2;SDS_P1;SDS_P2;PMS_P1;PMS_P2;Temp;Humidity;BMP_temperature;BMP_pressure;BME280_temperature;BME280_humidity;BME280_pressure;Samples;Min_cycle;Max_cycle;Signal;HPM_P1;HPM_P2
2023/12/02 00:08:08;;;;;;;62.50;16.33;;;-3.40;100.00;;;;;;4944191;29;20384;-82
2023/12/02 00:10:34;;;;;;;56.95;15.15;;;-3.40;100.00;;;;;;4934192;29;20120;-82
2023/12/02 00:13:01;;;;;;;65.60;17.60;;;-3.40;100.00;;;;;;4960803;28;20112;-82
2023/12/02 00:15:28;;;;;;;59.35;14.98;;;-3.40;100.00;;;;;;4929750;29;20098;-82
2023/12/02 00:17:55;;;;;;;54.85;16.10;;;-3.40;100.00;;;;;;4949173;29;20145;-82
2023/12/02 00:20:22;;;;;;;63.28;16.05;;;-3.40;100.00;;;;;;4943262;29;20428;-82
2023/12/02 00:22:49;;;;;;;76.07;16.75;;;-3.40;100.00;;;;;;4932719;29;20043;-82
2023/12/02 00:25:16;;;;;;;62.47;16.48;;;-3.40;100.00;;;;;;4955749;28;20480;-82
2023/12/02 00:27:43;;;;;;;57.72;14.80;;;-3.30;100.00;;;;;;4955713;28;20051;-82
2023/12/02 00:30:10;;;;;;;63.45;14.20;;;-3.30;100.00;;;;;;4936060;29;20055;-82
2023/12/02 00:32:37;;;;;;;51.88;15.15;;;-3.30;100.00;;;;;;4940158;28;20054;-83
2023/12/02 00:35:04;;;;;;;64.60;16.65;;;-3.20;100.00;;;;;;4932453;29;20074;-82
2023/12/02 00:37:31;;;;;;;52.67;16.27;;;-3.20;100.00;;;;;;4965227;28;20107;-82
2023/12/02 00:39:58;;;;;;;59.15;14.57;;;-3.20;100.00;;;;;;4933424;29;20060;-82
2023/12/02 00:42:25;;;;;;;71.55;17.55;;;-3.10;100.00;;;;;;4931013;29;20138;-82
2023/12/02 00:44:52;;;;;;;65.97;14.50;;;-3.10;100.00;;;;;;4933552;29;20047;-82
2023/12/02 00:47:19;;;;;;;63.17;17.02;;;-3.10;100.00;;;;;;4936107;29;20082;-83
2023/12/02 00:49:46;;;;;;;70.82;17.65;;;-3.10;100.00;;;;;;4932564;29;20061;-82
2023/12/02 00:52:13;;;;;;;64.65;14.93;;;-3.10;100.00;;;;;;4948536;29;20918;-82
2023/12/02 00:54:40;;;;;;;62.05;16.70;;;-3.10;100.00;;;;;;4942659;29;20055;-82
2023/12/02 00:57:07;;;;;;;57.80;16.40;;;-3.10;100.00;;;;;;4949791;28;20074;-82
2023/12/02 00:59:34;;;;;;;57.85;15.85;;;-3.10;100.00;;;;;;4933915;29;20492;-83
2023/12/02 01:02:01;;;;;;;58.85;15.38;;;-3.10;100.00;;;;;;4949992;28;20054;-82
2023/12/02 01:04:28;;;;;;;71.85;17.60;;;-3.00;100.00;;;;;;4944852;29;20059;-82
2023/12/02 01:06:55;;;;;;;58.97;15.10;;;-3.10;100.00;;;;;;4937370;29;20774;-82
2023/12/02 01:09:22;;;;;;;72.38;17.50;;;-3.00;100.00;;;;;;4943233;29;20062;-82
2023/12/02 01:11:49;;;;;;;84.82;18.88;;;-3.00;100.00;;;;;;4926431;29;20051;-83
2023/12/02 01:14:16;;;;;;;71.40;18.73;;;-3.00;100.00;;;;;;4934893;29;20062;-82
2023/12/02 01:16:43;;;;;;;58.70;16.10;;;-3.00;100.00;;;;;;4954566;28;20099;-82
2023/12/02 01:19:10;;;;;;;67.75;17.42;;;-3.00;100.00;;;;;;4943852;29;20059;-83
2023/12/02 01:21:37;;;;;;;59.70;16.08;;;-3.00;100.00;;;;;;4947172;29;20130;-82
2023/12/02 01:24:05;;;;;;;69.47;18.42;;;-3.00;100.00;;;;;;4972155;28;20051;-82
2023/12/02 01:26:32;;;;;;;67.35;17.13;;;-3.00;100.00;;;;;;4980587;28;20134;-83
2023/12/02 01:28:59;;;;;;;64.18;16.92;;;-3.00;100.00;;;;;;4945324;29;20118;-83
2023/12/02 01:31:25;;;;;;;65.80;17.45;;;-3.00;100.00;;;;;;4950473;28;20050;-83
2023/12/02 01:33:53;;;;;;;73.38;19.10;;;-3.00;100.00;;;;;;4948036;29;20058;-82
2023/12/02 01:36:20;;;;;;;62.55;18.85;;;-3.00;100.00;;;;;;4942238;28;20051;-82
2023/12/02 01:38:47;;;;;;;73.97;19.27;;;-3.00;100.00;;;;;;4932977;29;20065;-82
2023/12/02 01:41:13;;;;;;;67.53;19.05;;;-3.00;100.00;;;;;;4927802;29;20632;-82
2023/12/02 01:43:40;;;;;;;69.95;19.42;;;-2.90;100.00;;;;;;4933091;29;20488;-82
2023/12/02 01:46:07;;;;;;;76.28;19.83;;;-2.90;100.00;;;;;;4942939;28;20055;-82
2023/12/02 01:48:35;;;;;;;72.78;16.70;;;-2.90;100.00;;;;;;4962377;28;20050;-82
2023/12/02 01:51:04;;;;;;;78.88;20.73;;;-2.90;100.00;;;;;;4932470;28;20065;-82
2023/12/02 01:53:31;;;;;;;60.72;16.23;;;-2.90;100.00;;;;;;4928354;29;20166;-82
2023/12/02 01:55:58;;;;;;;77.20;19.60;;;-2.90;100.00;;;;;;4927900;29;20051;-82
2023/12/02 01:58:26;;;;;;;74.25;19.92;;;-2.80;100.00;;;;;;4932004;29;20130;-82
2023/12/02 02:00:53;;;;;;;71.60;18.15;;;-2.80;100.00;;;;;;4931139;29;20051;-83
2023/12/02 02:03:20;;;;;;;78.75;18.70;;;-2.80;100.00;;;;;;4957225;28;20051;-82
2023/12/02 02:05:48;;;;;;;73.10;18.92;;;-2.80;100.00;;;;;;4940434;29;20857;-82
2023/12/02 02:08:15;;;;;;;70.00;17.52;;;-2.80;100.00;;;;;;4931725;29;20455;-89
2023/12/02 02:10:41;;;;;;;75.32;19.17;;;-2.80;100.00;;;;;;4932565;28;20498;-86
2023/12/02 02:13:08;;;;;;;89.20;20.48;;;-2.80;100.00;;;;;;4930370;29;20047;-86
2023/12/02 02:15:35;;;;;;;71.28;19.40;;;-2.80;100.00;;;;;;4931484;29;20092;-86
2023/12/02 02:18:02;;;;;;;91.93;21.30;;;-2.80;100.00;;;;;;4952158;29;20499;-86
2023/12/02 02:20:29;;;;;;;86.65;19.90;;;-2.80;100.00;;;;;;4952835;29;20535;-84
2023/12/02 02:22:56;;;;;;;84.82;20.30;;;-2.90;100.00;;;;;;4940612;29;20039;-82
2023/12/02 02:25:26;;;;;;;71.95;19.23;;;-2.80;100.00;;;;;;4952135;28;20511;-86
2023/12/02 02:27:53;;;;;;;70.18;18.88;;;-2.80;100.00;;;;;;4950243;23;20492;-82
2023/12/02 02:30:20;;;;;;;83.05;19.92;;;-2.80;100.00;;;;;;5000104;28;20625;-86
2023/12/02 02:32:47;;;;;;;73.22;16.90;;;-2.80;100.00;;;;;;5004886;28;20713;-86
2023/12/02 02:35:14;;;;;;;81.05;20.35;;;-2.80;100.00;;;;;;5001958;28;20050;-85
2023/12/02 02:37:41;;;;;;;74.63;20.10;;;-2.80;100.00;;;;;;5004792;28;20058;-85
2023/12/02 02:40:08;;;;;;;86.93;20.13;;;-2.80;100.00;;;;;;4998918;28;20683;-86
2023/12/02 02:42:35;;;;;;;77.82;18.98;;;-2.80;100.00;;;;;;5002235;28;20057;-86
2023/12/02 02:45:02;;;;;;;90.72;20.23;;;-2.80;100.00;;;;;;5005930;28;20077;-86
2023/12/02 02:47:29;;;;;;;67.80;19.15;;;-2.80;100.00;;;;;;4994351;28;21049;-86
2023/12/02 02:53:08;;;;;;;69.72;18.33;;;-2.80;100.00;;;;;;4952640;28;20058;-82
2023/12/02 02:55:35;;;;;;;86.75;20.75;;;-2.80;100.00;;;;;;4930641;28;20062;-82
2023/12/02 02:58:02;;;;;;;74.88;18.15;;;-2.80;100.00;;;;;;4936081;28;20047;-82
2023/12/02 03:00:28;;;;;;;71.22;18.98;;;-2.80;100.00;;;;;;4936415;28;20468;-82
2023/12/02 03:02:55;;;;;;;72.68;18.92;;;-2.80;100.00;;;;;;4940320;28;20043;-82
2023/12/02 03:05:22;;;;;;;80.40;17.42;;;-2.80;100.00;;;;;;4947668;28;20153;-82
2023/12/02 03:07:53;;;;;;;75.78;20.17;;;-2.80;100.00;;;;;;4927270;29;20126;-82
2023/12/02 03:10:21;;;;;;;77.55;19.20;;;-2.80;100.00;;;;;;4927464;29;20059;-81
2023/12/02 03:12:48;;;;;;;80.88;18.98;;;-2.80;100.00;;;;;;4927337;29;20590;-81
2023/12/02 03:15:15;;;;;;;88.15;20.30;;;-2.80;100.00;;;;;;4934550;28;20058;-84
2023/12/02 03:17:42;;;;;;;84.28;20.00;;;-2.80;100.00;;;;;;4933042;29;20058;-86
2023/12/02 03:20:10;;;;;;;69.95;18.75;;;-2.80;100.00;;;;;;4941795;28;20857;-85
2023/12/02 03:22:37;;;;;;;95.25;22.00;;;-2.80;100.00;;;;;;4936077;28;20067;-85
2023/12/02 03:25:06;;;;;;;75.75;18.45;;;-2.80;100.00;;;;;;4954497;28;20129;-85
2023/12/02 03:27:33;;;;;;;77.78;19.65;;;-2.80;100.00;;;;;;4937669;29;20487;-85
2023/12/02 03:30:00;;;;;;;79.55;17.50;;;-2.80;100.00;;;;;;4953087;28;20054;-85
2023/12/02 03:32:27;;;;;;;83.80;20.42;;;-2.80;100.00;;;;;;4944486;28;20050;-85
2023/12/02 03:34:54;;;;;;;71.43;16.27;;;-2.80;100.00;;;;;;4950995;28;20551;-85
2023/12/02 03:37:20;;;;;;;91.43;19.50;;;-2.80;100.00;;;;;;4943177;29;20110;-85
2023/12/02 03:39:47;;;;;;;78.30;18.08;;;-2.80;100.00;;;;;;4937591;28;20058;-85
2023/12/02 03:42:14;;;;;;;78.72;21.00;;;-2.80;100.00;;;;;;4958402;23;20050;-85
2023/12/02 03:44:41;;;;;;;103.47;21.60;;;-2.80;100.00;;;;;;4973368;28;20050;-85
2023/12/02 03:47:08;;;;;;;76.15;20.85;;;-2.80;100.00;;;;;;4973557;28;20042;-86
2023/12/02 03:49:35;;;;;;;81.38;17.55;;;-2.80;100.00;;;;;;4966674;28;20407;-86
2023/12/02 03:52:02;;;;;;;79.07;19.20;;;-2.80;100.00;;;;;;4974646;28;20061;-85
2023/12/02 03:54:29;;;;;;;69.50;20.20;;;-2.80;100.00;;;;;;4976688;28;20116;-85
2023/12/02 03:56:56;;;;;;;78.95;19.05;;;-2.80;100.00;;;;;;4972855;28;20046;-85
2023/12/02 03:59:23;;;;;;;68.82;17.42;;;-2.80;100.00;;;;;;4986914;28;20050;-84
2023/12/02 04:01:50;;;;;;;75.95;19.58;;;-2.80;100.00;;;;;;4980885;28;20081;-85
2023/12/02 04:04:18;;;;;;;80.72;21.27;;;-2.80;100.00;;;;;;4976364;28;20070;-85
2023/12/02 04:06:45;;;;;;;77.05;18.75;;;-2.80;100.00;;;;;;4972983;28;20050;-86
2023/12/02 04:09:12;;;;;;;66.10;17.48;;;-2.80;100.00;;;;;;4972195;28;20058;-85
2023/12/02 04:11:39;;;;;;;85.35;18.77;;;-2.80;100.00;;;;;;4972383;28;20058;-86
2023/12/02 04:14:06;;;;;;;73.20;17.73;;;-2.80;100.00;;;;;;4988099;28;20609;-85
2023/12/02 04:16:33;;;;;;;80.15;19.70;;;-2.80;100.00;;;;;;4989412;28;20050;-85
2023/12/02 04:19:00;;;;;;;74.45;19.38;;;-2.70;100.00;;;;;;4972956;28;20054;-86
2023/12/02 04:21:27;;;;;;;66.88;18.42;;;-2.70;100.00;;;;;;4974046;28;20054;-86
2023/12/02 04:23:54;;;;;;;70.57;18.40;;;-2.80;100.00;;;;;;4989797;28;20061;-85
2023/12/02 04:26:21;;;;;;;75.32;18.23;;;-2.70;100.00;;;;;;4971625;28;20221;-85
2023/12/02 04:28:48;;;;;;;74.57;18.33;;;-2.70;100.00;;;;;;4970062;28;20043;-85
2023/12/02 04:34:07;;;;;;;61.80;18.33;;;-2.70;100.00;;;;;;4982315;28;20400;-81
2023/12/02 04:36:34;;;;;;;72.20;17.73;;;-2.70;100.00;;;;;;4986037;28;20152;-82
2023/12/02 04:39:03;;;;;;;74.90;18.77;;;-2.70;100.00;;;;;;4972035;28;20632;-82
2023/12/02 04:41:31;;;;;;;74.47;18.30;;;-2.70;100.00;;;;;;4974844;28;20057;-82
2023/12/02 04:43:58;;;;;;;60.55;19.30;;;-2.70;100.00;;;;;;4964540;28;20054;-83
2023/12/02 04:46:25;;;;;;;75.03;19.48;;;-2.70;100.00;;;;;;4973515;28;20607;-82
2023/12/02 04:48:52;;;;;;;75.65;18.00;;;-2.70;100.00;;;;;;4969865;28;20050;-82
2023/12/02 04:51:19;;;;;;;71.20;17.77;;;-2.70;100.00;;;;;;4971168;28;20170;-81
2023/12/02 04:53:46;;;;;;;63.58;16.98;;;-2.70;100.00;;;;;;4989512;28;20050;-82
2023/12/02 04:56:13;;;;;;;63.05;17.52;;;-2.70;100.00;;;;;;4973318;28;20058;-82
2023/12/02 04:58:40;;;;;;;66.05;15.95;;;-2.60;100.00;;;;;;4970240;28;20495;-82
2023/12/02 05:01:07;;;;;;;72.55;17.33;;;-2.60;100.00;;;;;;4972284;28;20121;-83
2023/12/02 05:03:34;;;;;;;75.07;17.83;;;-2.60;100.00;;;;;;4967503;28;20757;-83
2023/12/02 05:06:01;;;;;;;69.15;17.35;;;-2.60;100.00;;;;;;4974091;28;20054;-83
2023/12/02 05:08:28;;;;;;;62.88;16.60;;;-2.60;100.00;;;;;;4974590;28;20507;-83
2023/12/02 05:10:55;;;;;;;66.35;17.30;;;-2.60;100.00;;;;;;4969595;28;20112;-83
2023/12/02 05:13:22;;;;;;;66.53;17.77;;;-2.50;100.00;;;;;;4968714;28;20053;-82
2023/12/02 05:15:49;;;;;;;72.25;16.60;;;-2.50;100.00;;;;;;4976319;28;20054;-83
2023/12/02 05:21:25;;;;;;;62.28;15.85;;;-2.50;100.00;;;;;;4972622;28;20050;-86
2023/12/02 05:23:52;;;;;;;73.97;18.27;;;-2.50;100.00;;;;;;4958319;28;20137;-86
2023/12/02 05:26:19;;;;;;;58.47;16.13;;;-2.50;100.00;;;;;;4952803;28;20137;-86
2023/12/02 05:28:46;;;;;;;67.53;17.65;;;-2.50;100.00;;;;;;4953058;28;20049;-85
2023/12/02 05:31:13;;;;;;;66.13;18.08;;;-2.50;100.00;;;;;;4949396;28;20114;-85
2023/12/02 05:33:40;;;;;;;62.00;18.30;;;-2.50;100.00;;;;;;4968159;28;20437;-85
2023/12/02 05:36:09;;;;;;;49.50;14.88;;;-2.50;100.00;;;;;;4946463;28;20130;-85
2023/12/02 05:38:36;;;;;;;59.58;15.90;;;-2.40;100.00;;;;;;4947792;29;20770;-85
2023/12/02 05:41:04;;;;;;;64.70;18.35;;;-2.40;100.00;;;;;;4967498;28;20047;-86
2023/12/02 05:43:31;;;;;;;68.15;17.17;;;-2.40;100.00;;;;;;4955089;28;20459;-85
2023/12/02 05:45:58;;;;;;;65.13;15.45;;;-2.40;100.00;;;;;;4971592;28;20715;-85
2023/12/02 05:48:25;;;;;;;58.25;17.33;;;-2.40;100.00;;;;;;4971908;28;20121;-86
2023/12/02 05:50:52;;;;;;;60.17;16.35;;;-2.40;100.00;;;;;;4951392;28;20583;-86
2023/12/02 05:53:19;;;;;;;71.50;16.92;;;-2.40;100.00;;;;;;4961299;28;20054;-86
2023/12/02 05:55:46;;;;;;;60.53;16.88;;;-2.40;100.00;;;;;;4952082;28;20058;-87
2023/12/02 05:58:13;;;;;;;62.45;17.45;;;-2.40;100.00;;;;;;4952142;28;20071;-86
2023/12/02 06:00:40;;;;;;;65.22;17.83;;;-2.40;100.00;;;;;;4957457;28;20050;-86
2023/12/02 06:03:07;;;;;;;70.50;17.80;;;-2.40;100.00;;;;;;4949822;28;20047;-86
2023/12/02 06:05:34;;;;;;;56.38;14.90;;;-2.40;100.00;;;;;;4974966;28;20050;-86
2023/12/02 06:08:01;;;;;;;59.88;16.30;;;-2.40;100.00;;;;;;4953906;28;20058;-86
2023/12/02 06:10:28;;;;;;;67.30;18.27;;;-2.40;100.00;;;;;;4956136;28;20089;-87
2023/12/02 06:12:54;;;;;;;76.43;19.17;;;-2.30;100.00;;;;;;4954348;28;20436;-86
2023/12/02 06:15:22;;;;;;;70.88;18.15;;;-2.30;100.00;;;;;;4956593;28;20121;-87
2023/12/02 06:17:49;;;;;;;62.05;15.88;;;-2.30;100.00;;;;;;4960904;28;20454;-86
2023/12/02 06:20:16;;;;;;;68.47;17.40;;;-2.30;100.00;;;;;;4953614;28;20403;-86
2023/12/02 06:22:43;;;;;;;72.97;17.92;;;-2.30;100.00;;;;;;4953382;28;20047;-86
2023/12/02 06:25:09;;;;;;;62.60;19.13;;;-2.30;100.00;;;;;;4956178;28;20046;-86
2023/12/02 06:27:37;;;;;;;79.82;19.40;;;-2.30;100.00;;;;;;4959930;28;20112;-86
2023/12/02 06:30:04;;;;;;;70.63;17.70;;;-2.30;100.00;;;;;;4956299;28;20051;-86
2023/12/02 06:32:32;;;;;;;66.05;15.90;;;-2.30;100.00;;;;;;4983980;28;21171;-86
2023/12/02 06:34:59;;;;;;;67.05;17.13;;;-2.30;100.00;;;;;;4959104;28;20050;-86
2023/12/02 06:37:26;;;;;;;67.38;18.08;;;-2.20;100.00;;;;;;4959906;28;20476;-87
2023/12/02 06:39:52;;;;;;;75.15;18.35;;;-2.30;100.00;;;;;;4976221;28;20573;-87
2023/12/02 06:42:19;;;;;;;68.13;18.02;;;-2.20;100.00;;;;;;4953355;28;20100;-86
2023/12/02 06:44:47;;;;;;;72.88;20.55;;;-2.20;100.00;;;;;;4960742;28;20051;-86
2023/12/02 06:47:14;;;;;;;66.13;17.58;;;-2.20;100.00;;;;;;4952745;28;20078;-88
2023/12/02 06:49:41;;;;;;;73.88;17.73;;;-2.20;100.00;;;;;;4956101;28;20133;-86
2023/12/02 06:52:08;;;;;;;64.97;19.02;;;-2.20;100.00;;;;;;4959693;28;20070;-88
2023/12/02 06:54:39;;;;;;;68.40;16.08;;;-2.20;100.00;;;;;;4971675;28;20062;-87
2023/12/02 06:57:06;;;;;;;71.15;18.90;;;-2.20;100.00;;;;;;4954951;28;20611;-88
2023/12/02 06:59:33;;;;;;;75.55;17.00;;;-2.10;100.00;;;;;;4956325;28;20073;-88
2023/12/02 07:02:00;;;;;;;71.50;17.88;;;-2.10;100.00;;;;;;4951464;28;20063;-86
2023/12/02 07:04:27;;;;;;;64.22;17.25;;;-2.10;100.00;;;;;;4957642;28;20059;-86
2023/12/02 07:06:54;;;;;;;76.30;18.38;;;-2.10;100.00;;;;;;4958660;28;20057;-85
2023/12/02 07:09:21;;;;;;;75.30;19.73;;;-2.10;100.00;;;;;;4949048;28;20063;-86
2023/12/02 07:11:48;;;;;;;76.22;19.35;;;-2.10;100.00;;;;;;4952269;28;20082;-88
2023/12/02 07:14:15;;;;;;;73.57;17.25;;;-2.00;100.00;;;;;;4957074;28;20444;-87
2023/12/02 07:16:42;;;;;;;72.72;17.45;;;-2.00;100.00;;;;;;4965496;28;20058;-86
2023/12/02 07:19:09;;;;;;;67.03;16.58;;;-2.00;100.00;;;;;;4944283;28;20106;-85
2023/12/02 07:21:36;;;;;;;76.57;17.48;;;-2.00;100.00;;;;;;4956727;28;20418;-86
2023/12/02 07:24:04;;;;;;;72.95;19.13;;;-2.00;100.00;;;;;;4948236;28;20410;-83
2023/12/02 07:26:31;;;;;;;64.75;16.13;;;-2.00;100.00;;;;;;4952703;28;20082;-84
2023/12/02 07:28:58;;;;;;;60.58;17.27;;;-2.00;100.00;;;;;;4952669;28;20054;-83
2023/12/02 07:31:25;;;;;;;70.82;18.30;;;-2.00;100.00;;;;;;4969804;28;20573;-84
2023/12/02 07:33:51;;;;;;;77.35;17.05;;;-1.90;100.00;;;;;;4953129;28;20081;-84
2023/12/02 07:36:21;;;;;;;66.65;18.00;;;-1.90;100.00;;;;;;4951519;28;20138;-85
2023/12/02 07:38:48;;;;;;;67.78;17.08;;;-1.90;100.00;;;;;;4949980;28;20065;-84
2023/12/02 07:41:15;;;;;;;73.03;17.60;;;-1.90;100.00;;;;;;4953919;28;20047;-86
2023/12/02 07:43:42;;;;;;;76.65;16.38;;;-1.90;100.00;;;;;;4953751;28;20430;-83
2023/12/02 07:46:09;;;;;;;63.05;16.33;;;-1.80;100.00;;;;;;4947602;28;20626;-84
2023/12/02 07:48:36;;;;;;;52.97;15.50;;;-1.80;100.00;;;;;;4954630;28;20055;-83
2023/12/02 07:51:04;;;;;;;70.93;17.38;;;-1.80;100.00;;;;;;4949963;28;20059;-84
2023/12/02 07:53:31;;;;;;;63.72;16.30;;;-1.80;100.00;;;;;;4968891;28;20054;-83
2023/12/02 07:55:58;;;;;;;68.13;17.98;;;-1.80;100.00;;;;;;4954208;28;20137;-82
2023/12/02 07:58:25;;;;;;;72.13;18.10;;;-1.70;100.00;;;;;;4955101;28;20415;-83
2023/12/02 08:00:52;;;;;;;66.70;17.75;;;-1.70;100.00;;;;;;4952737;28;20125;-83
2023/12/02 08:03:19;;;;;;;82.32;18.70;;;-1.70;100.00;;;;;;4950677;28;20144;-84
2023/12/02 08:05:50;;;;;;;73.53;18.13;;;-1.70;100.00;;;;;;4958740;28;20397;-84
2023/12/02 08:08:17;;;;;;;86.70;18.92;;;-1.70;100.00;;;;;;4949471;28;20050;-83
2023/12/02 08:10:47;;;;;;;70.07;19.63;;;-1.70;100.00;;;;;;4950210;28;20054;-83
2023/12/02 08:13:14;;;;;;;74.82;19.73;;;-1.60;100.00;;;;;;4945774;28;20732;-84
2023/12/02 08:15:41;;;;;;;90.65;18.90;;;-1.60;100.00;;;;;;4948224;28;20109;-84
2023/12/02 08:18:08;;;;;;;79.43;20.02;;;-1.60;100.00;;;;;;4950988;28;20051;-84
2023/12/02 08:20:35;;;;;;;73.60;17.98;;;-1.50;100.00;;;;;;4965649;28;20142;-83
2023/12/02 08:23:02;;;;;;;74.97;19.75;;;-1.50;100.00;;;;;;4943720;28;20808;-83
2023/12/02 08:25:29;;;;;;;77.43;20.10;;;-1.50;100.00;;;;;;4946931;28;20058;-83
2023/12/02 08:27:56;;;;;;;88.32;19.48;;;-1.40;100.00;;;;;;4953614;28;20051;-84
2023/12/02 08:30:23;;;;;;;85.68;18.58;;;-1.40;100.00;;;;;;4949970;28;20058;-83
2023/12/02 08:32:50;;;;;;;82.72;19.88;;;-1.40;100.00;;;;;;4952790;28;20062;-84
2023/12/02 08:35:16;;;;;;;92.55;21.75;;;-1.40;100.00;;;;;;4944926;28;20177;-83
2023/12/02 08:37:43;;;;;;;88.63;20.80;;;-1.30;100.00;;;;;;4955402;28;20321;-83
2023/12/02 08:40:11;;;;;;;77.55;19.30;;;-1.30;100.00;;;;;;4945356;28;20050;-83
2023/12/02 08:42:37;;;;;;;76.55;19.52;;;-1.20;100.00;;;;;;4955615;28;20102;-87
2023/12/02 08:45:05;;;;;;;83.72;21.58;;;-1.20;100.00;;;;;;4977301;28;20094;-87
2023/12/02 08:47:32;;;;;;;79.82;20.08;;;-1.10;100.00;;;;;;4951352;28;20619;-87
2023/12/02 08:49:59;;;;;;;89.43;21.85;;;-1.00;100.00;;;;;;4951956;28;20149;-86
2023/12/02 08:52:26;;;;;;;84.78;19.55;;;-1.00;100.00;;;;;;4951229;28;20510;-86
2023/12/02 08:54:53;;;;;;;77.50;17.98;;;-0.90;100.00;;;;;;4947939;28;20051;-86
2023/12/02 08:57:20;;;;;;;88.20;20.75;;;-0.90;100.00;;;;;;4957154;28;20078;-86
2023/12/02 08:59:47;;;;;;;94.72;21.00;;;-0.80;100.00;;;;;;4957119;28;20109;-86
2023/12/02 09:02:14;;;;;;;70.78;18.75;;;-0.80;100.00;;;;;;4950423;28;20047;-86
2023/12/02 09:04:41;;;;;;;78.35;19.55;;;-0.70;100.00;;;;;;4954053;28;20054;-86
2023/12/02 09:07:08;;;;;;;80.75;17.98;;;-0.70;100.00;;;;;;4954326;28;20050;-86
2023/12/02 09:09:35;;;;;;;75.32;19.75;;;-0.70;100.00;;;;;;4969789;28;20054;-86
2023/12/02 09:12:02;;;;;;;71.13;20.35;;;-0.70;100.00;;;;;;4949066;28;20066;-86
2023/12/02 09:14:29;;;;;;;73.50;18.23;;;-0.60;100.00;;;;;;4950504;28;20082;-86
2023/12/02 09:16:56;;;;;;;75.80;19.60;;;-0.60;100.00;;;;;;4965867;28;20055;-85
2023/12/02 09:19:29;;;;;;;76.47;19.25;;;-0.60;100.00;;;;;;4948296;28;20120;-86
2023/12/02 09:21:56;;;;;;;66.40;18.95;;;-0.60;100.00;;;;;;4950873;28;20050;-86
2023/12/02 09:24:34;;;;;;;75.28;20.48;;;-0.50;100.00;;;;;;4958423;28;20113;-86
2023/12/02 09:27:05;;;;;;;63.80;18.63;;;-0.50;100.00;;;;;;4946434;28;20051;-86
2023/12/02 09:29:41;;;;;;;59.63;18.23;;;-0.40;100.00;;;;;;4957415;28;20116;-86
2023/12/02 09:32:08;;;;;;;73.75;19.38;;;-0.40;100.00;;;;;;4948547;28;20051;-87
2023/12/02 09:34:41;;;;;;;70.72;17.40;;;-0.50;100.00;;;;;;4949948;28;20066;-87
2023/12/02 09:37:49;;;;;;;61.47;16.23;;;-0.40;100.00;;;;;;4961534;28;20053;-86
2023/12/02 09:40:19;;;;;;;74.55;17.40;;;-0.30;100.00;;;;;;4964723;28;20070;-86
2023/12/02 09:42:58;;;;;;;61.88;17.15;;;-0.20;100.00;;;;;;4954489;28;20493;-86
2023/12/02 09:45:39;;;;;;;65.07;18.05;;;-0.20;100.00;;;;;;4961965;28;20082;-87
2023/12/02 09:48:17;;;;;;;52.40;15.82;;;-0.20;100.00;;;;;;4954594;28;20761;-86
2023/12/02 09:51:13;;;;;;;56.42;17.02;;;-0.10;100.00;;;;;;4948957;28;20743;-87
2023/12/02 09:53:49;;;;;;;55.97;16.23;;;-0.10;100.00;;;;;;4983540;28;20213;-86
2023/12/02 09:56:25;;;;;;;61.47;15.63;;;-0.20;100.00;;;;;;4955301;28;20672;-87
2023/12/02 09:59:08;;;;;;;53.83;16.23;;;-0.10;100.00;;;;;;4964441;28;20054;-86
2023/12/02 10:01:43;;;;;;;62.83;17.35;;;-0.10;100.00;;;;;;4952979;28;20050;-86
2023/12/02 10:04:44;;;;;;;63.50;18.27;;;0.00;100.00;;;;;;4949045;28;20050;-87
2023/12/02 10:07:44;;;;;;;58.88;16.65;;;0.00;100.00;;;;;;4957081;28;20137;-87
2023/12/02 10:10:15;;;;;;;56.13;16.63;;;0.00;100.00;;;;;;4947830;28;20447;-87
2023/12/02 10:13:11;;;;;;;55.88;15.68;;;0.00;100.00;;;;;;4954710;28;20541;-87
2023/12/02 10:15:41;;;;;;;63.58;17.33;;;0.10;100.00;;;;;;4949985;28;20101;-87
2023/12/02 10:18:13;;;;;;;63.63;19.10;;;0.20;100.00;;;;;;4950124;28;20055;-87
2023/12/02 10:20:42;;;;;;;64.43;17.85;;;0.20;100.00;;;;;;4965833;28;20061;-87
2023/12/02 10:23:12;;;;;;;56.03;17.33;;;0.30;100.00;;;;;;4967132;28;20101;-88
2023/12/02 10:26:11;;;;;;;60.85;18.05;;;0.40;100.00;;;;;;4953687;28;20929;-86
2023/12/02 10:28:56;;;;;;;63.60;18.08;;;0.40;100.00;;;;;;4951592;28;20604;-88
2023/12/02 10:31:31;;;;;;;70.65;17.20;;;0.40;100.00;;;;;;4949819;28;20058;-88
2023/12/02 10:34:35;;;;;;;56.55;17.10;;;0.50;100.00;;;;;;4954905;28;20050;-88
2023/12/02 10:37:04;;;;;;;59.38;17.70;;;0.60;100.00;;;;;;4965202;28;20206;-86
2023/12/02 10:39:51;;;;;;;66.32;18.50;;;0.80;100.00;;;;;;4957500;28;20780;-88
2023/12/02 10:42:24;;;;;;;65.78;18.60;;;0.80;100.00;;;;;;4961288;28;20047;-88
2023/12/02 10:45:05;;;;;;;58.53;17.88;;;0.90;100.00;;;;;;4972744;28;20133;-88
2023/12/02 10:47:32;;;;;;;55.40;17.50;;;0.90;100.00;;;;;;4952422;28;20106;-87
2023/12/02 10:50:00;;;;;;;58.78;17.92;;;0.90;100.00;;;;;;4958369;28;20070;-88
2023/12/02 10:52:28;;;;;;;60.85;19.08;;;0.90;100.00;;;;;;4952313;28;20061;-87
2023/12/02 10:55:00;;;;;;;60.33;18.02;;;1.00;100.00;;;;;;4965845;28;20450;-88
2023/12/02 10:57:27;;;;;;;59.38;15.88;;;1.20;100.00;;;;;;4958272;28;20050;-87
2023/12/02 10:59:57;;;;;;;56.20;16.40;;;1.30;100.00;;;;;;4969268;28;20135;-87
2023/12/02 11:02:37;;;;;;;54.80;16.35;;;1.50;100.00;;;;;;4949300;28;20094;-88
2023/12/02 11:05:21;;;;;;;61.95;17.42;;;1.60;100.00;;;;;;4950948;28;20054;-86
2023/12/02 11:07:59;;;;;;;53.92;15.95;;;1.60;100.00;;;;;;4948094;28;20122;-87
2023/12/02 11:11:01;;;;;;;56.97;18.92;;;1.50;100.00;;;;;;4953760;28;20047;-87
2023/12/02 11:13:33;;;;;;;60.10;18.17;;;1.40;100.00;;;;;;4954379;28;20653;-87
2023/12/02 11:16:37;;;;;;;60.92;18.05;;;1.20;100.00;;;;;;4953807;28;20046;-87
2023/12/02 11:19:13;;;;;;;61.33;17.65;;;1.10;100.00;;;;;;4952824;28;20168;-86
2023/12/02 11:22:09;;;;;;;47.25;15.82;;;1.10;100.00;;;;;;4947200;28;20126;-86
2023/12/02 11:24:47;;;;;;;47.75;14.30;;;0.90;100.00;;;;;;4987336;28;20062;-87
2023/12/02 11:28:05;;;;;;;50.63;15.95;;;0.90;100.00;;;;;;4977334;28;20042;-87
2023/12/02 11:30:38;;;;;;;50.95;16.25;;;0.80;100.00;;;;;;4935113;28;20039;-87
2023/12/02 11:33:23;;;;;;;48.63;14.30;;;0.60;100.00;;;;;;4961327;28;20558;-87
2023/12/02 11:36:08;;;;;;;50.40;16.73;;;0.50;100.00;;;;;;4964686;28;20094;-87
2023/12/02 11:38:50;;;;;;;46.40;15.30;;;0.50;100.00;;;;;;4954432;28;20051;-87
2023/12/02 11:41:39;;;;;;;41.97;14.48;;;0.40;100.00;;;;;;4958933;28;20054;-87
2023/12/02 11:44:24;;;;;;;55.10;15.57;;;0.40;100.00;;;;;;4981386;28;20074;-87
2023/12/02 11:47:01;;;;;;;54.47;16.75;;;0.40;100.00;;;;;;4953504;28;20480;-87
2023/12/02 11:49:58;;;;;;;54.00;15.50;;;0.30;100.00;;;;;;4952886;28;20054;-86
2023/12/02 11:52:53;;;;;;;48.80;16.75;;;0.30;100.00;;;;;;4973887;28;20070;-86
2023/12/02 11:55:30;;;;;;;45.72;14.68;;;0.20;100.00;;;;;;4949942;28;20129;-87
2023/12/02 11:58:03;;;;;;;48.20;14.98;;;0.10;100.00;;;;;;4954807;28;20522;-87
2023/12/02 12:01:25;;;;;;;44.05;14.88;;;0.20;100.00;;;;;;4985438;28;20498;-87
2023/12/02 12:04:33;;;;;;;44.63;15.55;;;0.20;100.00;;;;;;4909482;29;20554;-87
2023/12/02 12:07:15;;;;;;;52.05;14.95;;;0.20;100.00;;;;;;4968934;28;20051;-88
2023/12/02 12:09:48;;;;;;;49.00;15.48;;;0.20;100.00;;;;;;4982757;28;20546;-87
2023/12/02 12:12:18;;;;;;;43.53;14.30;;;0.10;100.00;;;;;;4985182;28;20043;-88
2023/12/02 12:14:47;;;;;;;45.90;14.82;;;0.20;100.00;;;;;;4958826;28;20051;-87
2023/12/02 12:17:13;;;;;;;49.63;15.82;;;0.40;100.00;;;;;;4949191;28;20776;-88
2023/12/02 12:19:41;;;;;;;46.92;14.68;;;0.40;100.00;;;;;;4960764;28;20574;-87
2023/12/02 12:22:08;;;;;;;47.42;14.23;;;0.40;100.00;;;;;;4951121;28;20081;-84
2023/12/02 12:24:35;;;;;;;50.30;14.60;;;0.40;100.00;;;;;;4948626;28;20082;-85
2023/12/02 12:27:02;;;;;;;45.65;14.93;;;0.50;100.00;;;;;;4948559;28;20488;-84
2023/12/02 12:29:29;;;;;;;43.67;14.90;;;0.50;100.00;;;;;;4948547;28;20043;-85
2023/12/02 12:31:59;;;;;;;46.80;15.52;;;0.50;100.00;;;;;;4953789;28;20486;-86
2023/12/02 12:34:27;;;;;;;45.28;15.25;;;0.50;100.00;;;;;;4974529;28;20043;-85
2023/12/02 12:36:55;;;;;;;45.63;15.80;;;0.60;100.00;;;;;;4951273;28;20688;-85
2023/12/02 12:39:22;;;;;;;48.35;15.95;;;0.50;100.00;;;;;;4954309;28;20781;-85
2023/12/02 12:41:50;;;;;;;46.17;15.02;;;0.50;100.00;;;;;;4959743;28;20046;-84
2023/12/02 12:44:19;;;;;;;58.72;18.60;;;0.40;100.00;;;;;;4957773;28;20050;-84
2023/12/02 12:46:46;;;;;;;58.78;16.95;;;0.30;100.00;;;;;;4950083;28;20039;-84
2023/12/02 12:49:21;;;;;;;50.78;16.23;;;0.30;100.00;;;;;;4966641;28;20051;-84